sensor_id;sensor_type;location;lat;lon;timestamp;P1;durP1;ratioP1;P2;durP2;ratioP2
54464;SDS011;40374;49.480;20.016;2023-05-27T00:01:02;16.60;;;5.15;;
54464;SDS011;40374;49.480;20.016;2023-05-27T00:03:29;15.05;;;6.28;;
54464;SDS011;40374;49.480;20.016;2023-05-27T00:06:00;15.00;;;6.05;;
54464;SDS011;40374;49.480;20.016;2023-05-27T00:08:27;28.23;;;6.35;;
54464;SDS011;40374;49.480;20.016;2023-05-27T00:10:55;14.65;;;5.45;;
54464;SDS011;40374;49.480;20.016;2023-05-27T00:13:22;14.10;;;6.03;;
54464;SDS011;40374;49.480;20.016;2023-05-27T00:15:50;18.58;;;6.15;;
54464;SDS011;40374;49.480;20.016;2023-05-27T00:18:18;21.63;;;10.52;;
54464;SDS011;40374;49.480;20.016;2023-05-27T00:20:46;26.85;;;10.98;;
54464;SDS011;40374;49.480;20.016;2023-05-27T00:23:14;24.35;;;10.40;;
54464;SDS011;40374;49.480;20.016;2023-05-27T00:25:42;23.60;;;11.30;;
54464;SDS011;40374;49.480;20.016;2023-05-27T00:28:09;22.55;;;9.60;;
54464;SDS011;40374;49.480;20.016;2023-05-27T00:30:37;20.50;;;11.38;;
54464;SDS011;40374;49.480;20.016;2023-05-27T00:33:04;24.20;;;10.25;;
54464;SDS011;40374;49.480;20.016;2023-05-27T00:35:32;19.42;;;7.32;;
54464;SDS011;40374;49.480;20.016;2023-05-27T00:37:59;12.00;;;5.22;;
54464;SDS011;40374;49.480;20.016;2023-05-27T00:40:28;22.45;;;6.35;;
54464;SDS011;40374;49.480;20.016;2023-05-27T00:42:57;13.68;;;5.13;;
54464;SDS011;40374;49.480;20.016;2023-05-27T00:45:24;14.57;;;5.40;;
54464;SDS011;40374;49.480;20.016;2023-05-27T00:47:53;18.50;;;5.63;;
54464;SDS011;40374;49.480;20.016;2023-05-27T00:50:20;19.75;;;6.03;;
54464;SDS011;40374;49.480;20.016;2023-05-27T00:52:48;19.20;;;5.45;;
54464;SDS011;40374;49.480;20.016;2023-05-27T00:55:16;15.65;;;5.80;;
54464;SDS011;40374;49.480;20.016;2023-05-27T00:57:44;18.65;;;5.85;;
54464;SDS011;40374;49.480;20.016;2023-05-27T01:00:12;13.38;;;5.45;;
54464;SDS011;40374;49.480;20.016;2023-05-27T01:02:40;12.40;;;5.68;;
54464;SDS011;40374;49.480;20.016;2023-05-27T01:05:09;16.85;;;5.47;;
54464;SDS011;40374;49.480;20.016;2023-05-27T01:10:43;18.42;;;6.10;;
54464;SDS011;40374;49.480;20.016;2023-05-27T01:13:18;17.20;;;7.50;;
54464;SDS011;40374;49.480;20.016;2023-05-27T01:15:58;15.38;;;5.95;;
54464;SDS011;40374;49.480;20.016;2023-05-27T01:18:28;13.50;;;5.45;;
54464;SDS011;40374;49.480;20.016;2023-05-27T01:21:06;14.05;;;5.32;;
54464;SDS011;40374;49.480;20.016;2023-05-27T01:23:36;19.80;;;5.25;;
54464;SDS011;40374;49.480;20.016;2023-05-27T01:26:07;13.48;;;5.07;;
54464;SDS011;40374;49.480;20.016;2023-05-27T01:28:34;14.27;;;5.55;;
54464;SDS011;40374;49.480;20.016;2023-05-27T01:31:10;16.30;;;6.10;;
54464;SDS011;40374;49.480;20.016;2023-05-27T01:33:42;16.02;;;5.82;;
54464;SDS011;40374;49.480;20.016;2023-05-27T01:36:17;16.45;;;6.13;;
54464;SDS011;40374;49.480;20.016;2023-05-27T01:38:50;16.50;;;5.60;;
54464;SDS011;40374;49.480;20.016;2023-05-27T01:41:19;29.48;;;6.32;;
54464;SDS011;40374;49.480;20.016;2023-05-27T01:43:50;22.85;;;6.55;;
54464;SDS011;40374;49.480;20.016;2023-05-27T01:46:18;17.00;;;5.70;;
54464;SDS011;40374;49.480;20.016;2023-05-27T01:48:46;17.77;;;5.68;;
54464;SDS011;40374;49.480;20.016;2023-05-27T01:51:13;13.18;;;4.93;;
54464;SDS011;40374;49.480;20.016;2023-05-27T01:53:41;13.15;;;5.25;;
54464;SDS011;40374;49.480;20.016;2023-05-27T01:56:10;16.67;;;5.45;;
54464;SDS011;40374;49.480;20.016;2023-05-27T01:58:38;17.45;;;5.60;;
54464;SDS011;40374;49.480;20.016;2023-05-27T02:01:06;21.40;;;5.40;;
54464;SDS011;40374;49.480;20.016;2023-05-27T02:03:33;21.38;;;6.57;;
54464;SDS011;40374;49.480;20.016;2023-05-27T02:06:01;17.98;;;6.20;;
54464;SDS011;40374;49.480;20.016;2023-05-27T02:08:28;17.60;;;6.68;;
54464;SDS011;40374;49.480;20.016;2023-05-27T02:10:56;16.35;;;5.38;;
54464;SDS011;40374;49.480;20.016;2023-05-27T02:13:25;16.58;;;6.55;;
54464;SDS011;40374;49.480;20.016;2023-05-27T02:15:52;24.92;;;6.35;;
54464;SDS011;40374;49.480;20.016;2023-05-27T02:18:20;18.00;;;6.53;;
54464;SDS011;40374;49.480;20.016;2023-05-27T02:20:48;19.45;;;6.40;;
54464;SDS011;40374;49.480;20.016;2023-05-27T02:23:18;26.48;;;8.57;;
54464;SDS011;40374;49.480;20.016;2023-05-27T02:25:45;21.73;;;10.45;;
54464;SDS011;40374;49.480;20.016;2023-05-27T02:28:15;26.52;;;12.18;;
54464;SDS011;40374;49.480;20.016;2023-05-27T02:30:43;29.48;;;14.30;;
54464;SDS011;40374;49.480;20.016;2023-05-27T02:33:11;25.55;;;9.70;;
54464;SDS011;40374;49.480;20.016;2023-05-27T02:35:38;21.85;;;8.20;;
54464;SDS011;40374;49.480;20.016;2023-05-27T02:38:06;29.75;;;8.70;;
54464;SDS011;40374;49.480;20.016;2023-05-27T02:40:33;18.48;;;7.40;;
54464;SDS011;40374;49.480;20.016;2023-05-27T02:43:01;25.13;;;8.18;;
54464;SDS011;40374;49.480;20.016;2023-05-27T02:45:28;21.27;;;8.73;;
54464;SDS011;40374;49.480;20.016;2023-05-27T02:47:55;17.67;;;8.38;;
54464;SDS011;40374;49.480;20.016;2023-05-27T02:50:23;29.58;;;9.82;;
54464;SDS011;40374;49.480;20.016;2023-05-27T02:52:51;20.23;;;9.25;;
54464;SDS011;40374;49.480;20.016;2023-05-27T02:55:18;22.65;;;9.30;;
54464;SDS011;40374;49.480;20.016;2023-05-27T02:57:46;24.35;;;9.23;;
54464;SDS011;40374;49.480;20.016;2023-05-27T03:00:14;21.58;;;9.13;;
54464;SDS011;40374;49.480;20.016;2023-05-27T03:02:42;23.20;;;9.02;;
54464;SDS011;40374;49.480;20.016;2023-05-27T03:05:16;26.85;;;9.25;;
54464;SDS011;40374;49.480;20.016;2023-05-27T03:07:44;34.17;;;11.45;;
54464;SDS011;40374;49.480;20.016;2023-05-27T03:10:12;29.83;;;9.23;;
54464;SDS011;40374;49.480;20.016;2023-05-27T03:12:39;23.70;;;9.63;;
54464;SDS011;40374;49.480;20.016;2023-05-27T03:15:07;33.90;;;9.63;;
54464;SDS011;40374;49.480;20.016;2023-05-27T03:17:37;26.23;;;11.05;;
54464;SDS011;40374;49.480;20.016;2023-05-27T03:20:05;36.65;;;10.48;;
54464;SDS011;40374;49.480;20.016;2023-05-27T03:22:35;28.33;;;9.43;;
54464;SDS011;40374;49.480;20.016;2023-05-27T03:25:04;31.27;;;9.20;;
54464;SDS011;40374;49.480;20.016;2023-05-27T03:27:32;22.13;;;8.48;;
54464;SDS011;40374;49.480;20.016;2023-05-27T03:30:09;23.25;;;9.50;;
54464;SDS011;40374;49.480;20.016;2023-05-27T03:33:48;21.35;;;8.68;;
54464;SDS011;40374;49.480;20.016;2023-05-27T03:36:24;27.30;;;10.93;;
54464;SDS011;40374;49.480;20.016;2023-05-27T03:38:58;25.52;;;9.90;;
54464;SDS011;40374;49.480;20.016;2023-05-27T03:41:59;30.70;;;11.52;;
54464;SDS011;40374;49.480;20.016;2023-05-27T03:44:28;16.52;;;6.07;;
54464;SDS011;40374;49.480;20.016;2023-05-27T03:47:12;20.52;;;6.35;;
54464;SDS011;40374;49.480;20.016;2023-05-27T03:50:02;19.83;;;6.05;;
54464;SDS011;40374;49.480;20.016;2023-05-27T03:52:46;14.57;;;6.35;;
54464;SDS011;40374;49.480;20.016;2023-05-27T03:55:14;17.65;;;5.47;;
54464;SDS011;40374;49.480;20.016;2023-05-27T03:57:54;19.92;;;6.38;;
54464;SDS011;40374;49.480;20.016;2023-05-27T04:00:40;22.75;;;5.72;;
54464;SDS011;40374;49.480;20.016;2023-05-27T04:04:05;17.60;;;4.57;;
54464;SDS011;40374;49.480;20.016;2023-05-27T04:06:58;15.10;;;5.05;;
54464;SDS011;40374;49.480;20.016;2023-05-27T04:09:37;15.82;;;5.30;;
54464;SDS011;40374;49.480;20.016;2023-05-27T04:12:52;18.02;;;4.55;;
54464;SDS011;40374;49.480;20.016;2023-05-27T04:15:33;13.85;;;5.05;;
54464;SDS011;40374;49.480;20.016;2023-05-27T04:18:58;19.05;;;5.30;;
54464;SDS011;40374;49.480;20.016;2023-05-27T04:21:45;10.13;;;4.50;;
54464;SDS011;40374;49.480;20.016;2023-05-27T04:25:11;13.98;;;6.63;;
54464;SDS011;40374;49.480;20.016;2023-05-27T04:28:24;15.20;;;5.07;;
54464;SDS011;40374;49.480;20.016;2023-05-27T04:31:12;16.45;;;5.05;;
54464;SDS011;40374;49.480;20.016;2023-05-27T04:34:40;23.02;;;5.47;;
54464;SDS011;40374;49.480;20.016;2023-05-27T04:38:10;29.60;;;8.20;;
54464;SDS011;40374;49.480;20.016;2023-05-27T04:41:15;15.38;;;8.13;;
54464;SDS011;40374;49.480;20.016;2023-05-27T04:44:47;21.10;;;7.07;;
54464;SDS011;40374;49.480;20.016;2023-05-27T04:47:39;20.15;;;6.30;;
54464;SDS011;40374;49.480;20.016;2023-05-27T04:51:05;26.27;;;7.57;;
54464;SDS011;40374;49.480;20.016;2023-05-27T04:53:37;17.52;;;6.30;;
54464;SDS011;40374;49.480;20.016;2023-05-27T04:57:11;22.58;;;6.57;;
54464;SDS011;40374;49.480;20.016;2023-05-27T05:00:38;17.13;;;6.30;;
54464;SDS011;40374;49.480;20.016;2023-05-27T05:03:25;22.92;;;6.60;;
54464;SDS011;40374;49.480;20.016;2023-05-27T05:06:47;18.00;;;6.32;;
54464;SDS011;40374;49.480;20.016;2023-05-27T05:09:39;23.45;;;6.22;;
54464;SDS011;40374;49.480;20.016;2023-05-27T05:12:24;21.50;;;7.32;;
54464;SDS011;40374;49.480;20.016;2023-05-27T05:14:53;25.25;;;7.00;;
54464;SDS011;40374;49.480;20.016;2023-05-27T05:17:21;17.50;;;7.25;;
54464;SDS011;40374;49.480;20.016;2023-05-27T05:20:13;22.15;;;7.05;;
54464;SDS011;40374;49.480;20.016;2023-05-27T05:22:44;30.77;;;8.13;;
54464;SDS011;40374;49.480;20.016;2023-05-27T05:25:16;22.45;;;8.45;;
54464;SDS011;40374;49.480;20.016;2023-05-27T05:27:50;24.85;;;6.93;;
54464;SDS011;40374;49.480;20.016;2023-05-27T05:30:25;14.05;;;6.78;;
54464;SDS011;40374;49.480;20.016;2023-05-27T05:33:18;24.80;;;6.20;;
54464;SDS011;40374;49.480;20.016;2023-05-27T05:36:05;16.38;;;4.70;;
54464;SDS011;40374;49.480;20.016;2023-05-27T05:38:51;22.58;;;7.05;;
54464;SDS011;40374;49.480;20.016;2023-05-27T05:41:42;14.13;;;5.47;;
54464;SDS011;40374;49.480;20.016;2023-05-27T05:44:28;22.38;;;4.75;;
54464;SDS011;40374;49.480;20.016;2023-05-27T05:47:55;10.85;;;4.20;;
54464;SDS011;40374;49.480;20.016;2023-05-27T05:50:28;20.88;;;4.28;;
54464;SDS011;40374;49.480;20.016;2023-05-27T05:52:59;12.70;;;4.07;;
54464;SDS011;40374;49.480;20.016;2023-05-27T05:55:30;10.20;;;4.10;;
54464;SDS011;40374;49.480;20.016;2023-05-27T05:57:58;14.88;;;4.10;;
54464;SDS011;40374;49.480;20.016;2023-05-27T06:00:26;15.10;;;3.97;;
54464;SDS011;40374;49.480;20.016;2023-05-27T06:03:14;10.10;;;3.80;;
54464;SDS011;40374;49.480;20.016;2023-05-27T06:05:49;18.17;;;4.07;;
54464;SDS011;40374;49.480;20.016;2023-05-27T06:08:20;9.13;;;3.13;;
54464;SDS011;40374;49.480;20.016;2023-05-27T06:10:56;19.27;;;4.10;;
54464;SDS011;40374;49.480;20.016;2023-05-27T06:13:24;16.98;;;4.35;;
54464;SDS011;40374;49.480;20.016;2023-05-27T06:15:54;18.35;;;4.07;;
54464;SDS011;40374;49.480;20.016;2023-05-27T06:18:24;14.68;;;3.97;;
54464;SDS011;40374;49.480;20.016;2023-05-27T06:20:52;12.60;;;3.97;;
54464;SDS011;40374;49.480;20.016;2023-05-27T06:23:22;13.60;;;3.42;;
54464;SDS011;40374;49.480;20.016;2023-05-27T06:26:16;15.60;;;3.42;;
54464;SDS011;40374;49.480;20.016;2023-05-27T06:28:48;10.10;;;3.33;;
54464;SDS011;40374;49.480;20.016;2023-05-27T06:31:16;13.00;;;3.50;;
54464;SDS011;40374;49.480;20.016;2023-05-27T06:33:45;12.23;;;3.67;;
54464;SDS011;40374;49.480;20.016;2023-05-27T06:36:12;14.95;;;3.78;;
54464;SDS011;40374;49.480;20.016;2023-05-27T06:38:41;15.82;;;3.28;;
54464;SDS011;40374;49.480;20.016;2023-05-27T06:41:09;14.70;;;3.83;;
54464;SDS011;40374;49.480;20.016;2023-05-27T06:43:42;7.40;;;3.55;;
54464;SDS011;40374;49.480;20.016;2023-05-27T06:46:23;13.32;;;3.22;;
54464;SDS011;40374;49.480;20.016;2023-05-27T06:49:00;13.93;;;3.63;;
54464;SDS011;40374;49.480;20.016;2023-05-27T06:51:29;12.80;;;4.05;;
54464;SDS011;40374;49.480;20.016;2023-05-27T07:01:31;18.98;;;3.55;;
54464;SDS011;40374;49.480;20.016;2023-05-27T07:04:01;11.88;;;3.38;;
54464;SDS011;40374;49.480;20.016;2023-05-27T07:06:47;13.18;;;3.70;;
54464;SDS011;40374;49.480;20.016;2023-05-27T07:09:15;15.68;;;3.33;;
54464;SDS011;40374;49.480;20.016;2023-05-27T07:11:43;13.63;;;3.67;;
54464;SDS011;40374;49.480;20.016;2023-05-27T07:14:16;14.80;;;3.70;;
54464;SDS011;40374;49.480;20.016;2023-05-27T07:16:43;10.10;;;3.70;;
54464;SDS011;40374;49.480;20.016;2023-05-27T07:19:11;15.20;;;4.25;;
54464;SDS011;40374;49.480;20.016;2023-05-27T07:21:47;20.85;;;4.45;;
54464;SDS011;40374;49.480;20.016;2023-05-27T07:24:19;15.98;;;3.85;;
54464;SDS011;40374;49.480;20.016;2023-05-27T07:26:48;18.50;;;3.58;;
54464;SDS011;40374;49.480;20.016;2023-05-27T07:29:18;14.50;;;3.88;;
54464;SDS011;40374;49.480;20.016;2023-05-27T07:31:54;15.18;;;3.80;;
54464;SDS011;40374;49.480;20.016;2023-05-27T07:34:28;19.05;;;4.97;;
54464;SDS011;40374;49.480;20.016;2023-05-27T07:36:56;19.70;;;3.85;;
54464;SDS011;40374;49.480;20.016;2023-05-27T07:39:24;19.75;;;4.35;;
54464;SDS011;40374;49.480;20.016;2023-05-27T07:41:51;15.77;;;3.83;;
54464;SDS011;40374;49.480;20.016;2023-05-27T07:44:19;9.27;;;3.28;;
54464;SDS011;40374;49.480;20.016;2023-05-27T07:46:47;17.55;;;3.95;;
54464;SDS011;40374;49.480;20.016;2023-05-27T07:49:15;15.45;;;4.13;;
54464;SDS011;40374;49.480;20.016;2023-05-27T07:51:54;12.00;;;3.50;;
54464;SDS011;40374;49.480;20.016;2023-05-27T07:54:22;16.77;;;4.03;;
54464;SDS011;40374;49.480;20.016;2023-05-27T10:20:29;19.17;;;4.72;;
54464;SDS011;40374;49.480;20.016;2023-05-27T10:23:15;16.08;;;4.25;;
54464;SDS011;40374;49.480;20.016;2023-05-27T10:25:49;14.95;;;4.70;;
54464;SDS011;40374;49.480;20.016;2023-05-27T10:31:04;17.65;;;5.35;;
54464;SDS011;40374;49.480;20.016;2023-05-27T10:33:45;20.08;;;4.45;;
54464;SDS011;40374;49.480;20.016;2023-05-27T10:36:15;15.25;;;4.90;;
54464;SDS011;40374;49.480;20.016;2023-05-27T10:39:06;14.15;;;5.13;;
54464;SDS011;40374;49.480;20.016;2023-05-27T10:41:39;25.45;;;5.15;;
54464;SDS011;40374;49.480;20.016;2023-05-27T10:44:10;12.80;;;4.50;;
54464;SDS011;40374;49.480;20.016;2023-05-27T10:46:38;16.90;;;4.65;;
54464;SDS011;40374;49.480;20.016;2023-05-27T10:49:14;17.77;;;4.60;;
54464;SDS011;40374;49.480;20.016;2023-05-27T10:51:43;16.52;;;4.43;;
54464;SDS011;40374;49.480;20.016;2023-05-27T10:54:15;18.83;;;4.13;;
54464;SDS011;40374;49.480;20.016;2023-05-27T10:56:55;17.13;;;4.22;;
54464;SDS011;40374;49.480;20.016;2023-05-27T10:59:23;17.80;;;5.07;;
54464;SDS011;40374;49.480;20.016;2023-05-27T11:01:52;13.13;;;5.00;;
54464;SDS011;40374;49.480;20.016;2023-05-27T11:04:20;14.07;;;4.15;;
54464;SDS011;40374;49.480;20.016;2023-05-27T11:06:59;17.48;;;3.88;;
54464;SDS011;40374;49.480;20.016;2023-05-27T11:09:30;14.35;;;4.63;;
54464;SDS011;40374;49.480;20.016;2023-05-27T11:12:01;17.73;;;4.72;;
54464;SDS011;40374;49.480;20.016;2023-05-27T11:14:32;12.98;;;4.82;;
54464;SDS011;40374;49.480;20.016;2023-05-27T11:17:00;13.95;;;4.68;;
54464;SDS011;40374;49.480;20.016;2023-05-27T11:19:28;13.68;;;4.47;;
54464;SDS011;40374;49.480;20.016;2023-05-27T11:21:56;15.93;;;4.55;;
54464;SDS011;40374;49.480;20.016;2023-05-27T11:24:23;21.98;;;4.75;;
54464;SDS011;40374;49.480;20.016;2023-05-27T11:26:51;17.13;;;5.53;;
54464;SDS011;40374;49.480;20.016;2023-05-27T11:29:18;20.35;;;4.80;;
54464;SDS011;40374;49.480;20.016;2023-05-27T11:31:46;12.55;;;3.63;;
54464;SDS011;40374;49.480;20.016;2023-05-27T11:34:14;26.70;;;4.93;;
54464;SDS011;40374;49.480;20.016;2023-05-27T11:36:44;13.77;;;3.97;;
54464;SDS011;40374;49.480;20.016;2023-05-27T11:39:14;13.10;;;4.05;;
54464;SDS011;40374;49.480;20.016;2023-05-27T11:41:49;18.52;;;4.93;;
54464;SDS011;40374;49.480;20.016;2023-05-27T11:44:20;12.57;;;4.00;;
54464;SDS011;40374;49.480;20.016;2023-05-27T11:46:58;13.65;;;3.83;;
54464;SDS011;40374;49.480;20.016;2023-05-27T11:49:28;18.23;;;4.28;;
54464;SDS011;40374;49.480;20.016;2023-05-27T11:51:56;14.35;;;4.32;;
54464;SDS011;40374;49.480;20.016;2023-05-27T11:54:25;13.02;;;4.35;;
54464;SDS011;40374;49.480;20.016;2023-05-27T11:56:54;13.18;;;4.47;;
54464;SDS011;40374;49.480;20.016;2023-05-27T11:59:23;10.80;;;4.45;;
54464;SDS011;40374;49.480;20.016;2023-05-27T12:01:51;9.35;;;4.32;;
54464;SDS011;40374;49.480;20.016;2023-05-27T12:04:21;11.30;;;4.60;;
54464;SDS011;40374;49.480;20.016;2023-05-27T12:06:48;14.70;;;4.38;;
54464;SDS011;40374;49.480;20.016;2023-05-27T12:09:16;15.90;;;4.63;;
54464;SDS011;40374;49.480;20.016;2023-05-27T12:11:44;15.27;;;5.15;;
54464;SDS011;40374;49.480;20.016;2023-05-27T12:14:11;16.88;;;4.78;;
54464;SDS011;40374;49.480;20.016;2023-05-27T12:16:39;15.90;;;4.90;;
54464;SDS011;40374;49.480;20.016;2023-05-27T12:19:06;15.95;;;4.43;;
54464;SDS011;40374;49.480;20.016;2023-05-27T12:21:34;12.50;;;4.20;;
54464;SDS011;40374;49.480;20.016;2023-05-27T12:24:05;13.88;;;4.38;;
54464;SDS011;40374;49.480;20.016;2023-05-27T12:26:34;15.13;;;5.25;;
54464;SDS011;40374;49.480;20.016;2023-05-27T12:29:01;11.05;;;5.07;;
54464;SDS011;40374;49.480;20.016;2023-05-27T12:31:29;14.85;;;4.63;;
54464;SDS011;40374;49.480;20.016;2023-05-27T12:33:56;13.45;;;4.55;;
54464;SDS011;40374;49.480;20.016;2023-05-27T12:36:24;12.30;;;4.03;;
54464;SDS011;40374;49.480;20.016;2023-05-27T12:38:52;8.32;;;4.03;;
54464;SDS011;40374;49.480;20.016;2023-05-27T12:41:19;10.82;;;4.07;;
54464;SDS011;40374;49.480;20.016;2023-05-27T12:43:47;16.15;;;4.70;;
54464;SDS011;40374;49.480;20.016;2023-05-27T12:46:15;15.15;;;5.00;;
54464;SDS011;40374;49.480;20.016;2023-05-27T12:48:42;14.70;;;5.05;;
54464;SDS011;40374;49.480;20.016;2023-05-27T12:51:10;13.75;;;5.10;;
54464;SDS011;40374;49.480;20.016;2023-05-27T12:53:38;16.77;;;5.03;;
54464;SDS011;40374;49.480;20.016;2023-05-27T12:56:06;15.50;;;5.35;;
54464;SDS011;40374;49.480;20.016;2023-05-27T12:58:33;15.82;;;5.78;;
54464;SDS011;40374;49.480;20.016;2023-05-27T13:01:01;10.93;;;4.93;;
54464;SDS011;40374;49.480;20.016;2023-05-27T13:03:29;14.40;;;4.72;;
54464;SDS011;40374;49.480;20.016;2023-05-27T13:05:57;15.95;;;4.75;;
54464;SDS011;40374;49.480;20.016;2023-05-27T13:08:25;16.08;;;4.63;;
54464;SDS011;40374;49.480;20.016;2023-05-27T13:10:54;15.38;;;4.68;;
54464;SDS011;40374;49.480;20.016;2023-05-27T13:13:21;20.30;;;5.82;;
54464;SDS011;40374;49.480;20.016;2023-05-27T13:15:49;24.42;;;5.43;;
54464;SDS011;40374;49.480;20.016;2023-05-27T13:18:17;14.85;;;4.63;;
54464;SDS011;40374;49.480;20.016;2023-05-27T13:20:44;10.73;;;4.55;;
54464;SDS011;40374;49.480;20.016;2023-05-27T13:23:12;17.63;;;5.30;;
54464;SDS011;40374;49.480;20.016;2023-05-27T13:25:40;16.38;;;5.25;;
54464;SDS011;40374;49.480;20.016;2023-05-27T13:28:07;13.13;;;4.88;;
54464;SDS011;40374;49.480;20.016;2023-05-27T13:30:35;15.68;;;4.45;;
54464;SDS011;40374;49.480;20.016;2023-05-27T13:33:02;16.48;;;4.65;;
54464;SDS011;40374;49.480;20.016;2023-05-27T13:35:30;14.02;;;5.22;;
54464;SDS011;40374;49.480;20.016;2023-05-27T13:37:57;11.13;;;4.55;;
54464;SDS011;40374;49.480;20.016;2023-05-27T13:40:27;12.52;;;4.53;;
54464;SDS011;40374;49.480;20.016;2023-05-27T13:42:55;14.60;;;4.35;;
54464;SDS011;40374;49.480;20.016;2023-05-27T13:45:23;15.63;;;5.00;;
54464;SDS011;40374;49.480;20.016;2023-05-27T13:47:50;11.88;;;5.18;;
54464;SDS011;40374;49.480;20.016;2023-05-27T13:50:18;12.20;;;4.25;;
54464;SDS011;40374;49.480;20.016;2023-05-27T13:52:45;16.92;;;5.53;;
54464;SDS011;40374;49.480;20.016;2023-05-27T13:55:13;14.27;;;4.22;;
54464;SDS011;40374;49.480;20.016;2023-05-27T13:57:40;12.50;;;4.57;;
54464;SDS011;40374;49.480;20.016;2023-05-27T14:00:08;11.35;;;4.32;;
54464;SDS011;40374;49.480;20.016;2023-05-27T14:02:36;9.52;;;4.38;;
54464;SDS011;40374;49.480;20.016;2023-05-27T14:05:04;17.13;;;4.50;;
54464;SDS011;40374;49.480;20.016;2023-05-27T14:07:38;14.68;;;4.55;;
54464;SDS011;40374;49.480;20.016;2023-05-27T14:10:08;10.55;;;4.50;;
54464;SDS011;40374;49.480;20.016;2023-05-27T14:12:36;11.10;;;4.25;;
54464;SDS011;40374;49.480;20.016;2023-05-27T14:15:04;19.05;;;4.88;;
54464;SDS011;40374;49.480;20.016;2023-05-27T14:17:32;14.25;;;5.18;;
54464;SDS011;40374;49.480;20.016;2023-05-27T14:20:00;10.23;;;3.47;;
54464;SDS011;40374;49.480;20.016;2023-05-27T14:22:28;14.68;;;4.28;;
54464;SDS011;40374;49.480;20.016;2023-05-27T14:24:56;13.10;;;4.65;;
54464;SDS011;40374;49.480;20.016;2023-05-27T14:27:23;14.50;;;4.57;;
54464;SDS011;40374;49.480;20.016;2023-05-27T14:29:51;13.43;;;4.90;;
54464;SDS011;40374;49.480;20.016;2023-05-27T14:32:18;11.40;;;4.63;;
54464;SDS011;40374;49.480;20.016;2023-05-27T14:34:46;11.30;;;5.00;;
54464;SDS011;40374;49.480;20.016;2023-05-27T14:37:13;9.88;;;4.03;;
54464;SDS011;40374;49.480;20.016;2023-05-27T14:39:41;21.67;;;5.03;;
54464;SDS011;40374;49.480;20.016;2023-05-27T14:42:08;8.43;;;4.30;;
54464;SDS011;40374;49.480;20.016;2023-05-27T14:44:36;7.55;;;4.80;;
54464;SDS011;40374;49.480;20.016;2023-05-27T14:47:04;9.98;;;5.03;;
54464;SDS011;40374;49.480;20.016;2023-05-27T14:49:32;9.45;;;4.47;;
54464;SDS011;40374;49.480;20.016;2023-05-27T14:52:00;9.98;;;4.65;;
54464;SDS011;40374;49.480;20.016;2023-05-27T14:54:28;14.30;;;4.68;;
54464;SDS011;40374;49.480;20.016;2023-05-27T14:56:55;12.30;;;5.57;;
54464;SDS011;40374;49.480;20.016;2023-05-27T14:59:22;8.77;;;4.60;;
54464;SDS011;40374;49.480;20.016;2023-05-27T15:01:50;12.00;;;4.90;;
54464;SDS011;40374;49.480;20.016;2023-05-27T15:04:17;7.10;;;4.50;;
54464;SDS011;40374;49.480;20.016;2023-05-27T15:06:45;7.47;;;4.43;;
54464;SDS011;40374;49.480;20.016;2023-05-27T15:09:13;13.25;;;5.22;;
54464;SDS011;40374;49.480;20.016;2023-05-27T15:11:40;10.10;;;4.30;;
54464;SDS011;40374;49.480;20.016;2023-05-27T15:14:08;7.15;;;4.43;;
54464;SDS011;40374;49.480;20.016;2023-05-27T15:16:36;10.30;;;5.20;;
54464;SDS011;40374;49.480;20.016;2023-05-27T15:19:03;8.05;;;4.82;;
54464;SDS011;40374;49.480;20.016;2023-05-27T15:21:31;9.68;;;4.60;;
54464;SDS011;40374;49.480;20.016;2023-05-27T15:23:59;11.30;;;4.75;;
54464;SDS011;40374;49.480;20.016;2023-05-27T15:26:26;8.95;;;4.90;;
54464;SDS011;40374;49.480;20.016;2023-05-27T15:28:54;12.00;;;5.38;;
54464;SDS011;40374;49.480;20.016;2023-05-27T15:31:22;9.00;;;4.72;;
54464;SDS011;40374;49.480;20.016;2023-05-27T15:33:50;11.07;;;5.68;;
54464;SDS011;40374;49.480;20.016;2023-05-27T15:36:18;10.88;;;4.80;;
54464;SDS011;40374;49.480;20.016;2023-05-27T15:38:46;8.90;;;5.15;;
54464;SDS011;40374;49.480;20.016;2023-05-27T15:41:13;10.90;;;4.82;;
54464;SDS011;40374;49.480;20.016;2023-05-27T15:43:41;10.70;;;4.95;;
54464;SDS011;40374;49.480;20.016;2023-05-27T15:46:08;9.27;;;4.78;;
54464;SDS011;40374;49.480;20.016;2023-05-27T15:48:36;9.30;;;4.90;;
54464;SDS011;40374;49.480;20.016;2023-05-27T15:51:03;15.82;;;4.82;;
54464;SDS011;40374;49.480;20.016;2023-05-27T15:53:31;10.93;;;5.25;;
54464;SDS011;40374;49.480;20.016;2023-05-27T15:55:59;8.85;;;4.63;;
54464;SDS011;40374;49.480;20.016;2023-05-27T15:58:27;13.30;;;4.95;;
54464;SDS011;40374;49.480;20.016;2023-05-27T16:00:55;11.65;;;4.55;;
54464;SDS011;40374;49.480;20.016;2023-05-27T16:03:22;8.82;;;4.82;;
54464;SDS011;40374;49.480;20.016;2023-05-27T16:05:50;12.38;;;5.22;;
54464;SDS011;40374;49.480;20.016;2023-05-27T16:08:18;13.70;;;4.57;;
54464;SDS011;40374;49.480;20.016;2023-05-27T16:10:50;15.73;;;5.07;;
54464;SDS011;40374;49.480;20.016;2023-05-27T16:13:23;13.43;;;5.68;;
54464;SDS011;40374;49.480;20.016;2023-05-27T16:15:51;9.45;;;4.43;;
54464;SDS011;40374;49.480;20.016;2023-05-27T16:18:19;17.58;;;5.28;;
54464;SDS011;40374;49.480;20.016;2023-05-27T16:20:46;19.30;;;4.88;;
54464;SDS011;40374;49.480;20.016;2023-05-27T16:23:17;13.30;;;5.53;;
54464;SDS011;40374;49.480;20.016;2023-05-27T16:25:45;11.25;;;4.78;;
54464;SDS011;40374;49.480;20.016;2023-05-27T16:28:13;15.60;;;4.82;;
54464;SDS011;40374;49.480;20.016;2023-05-27T16:30:40;10.13;;;5.30;;
54464;SDS011;40374;49.480;20.016;2023-05-27T16:33:08;15.27;;;5.15;;
54464;SDS011;40374;49.480;20.016;2023-05-27T16:35:36;10.55;;;4.57;;
54464;SDS011;40374;49.480;20.016;2023-05-27T16:38:03;7.57;;;3.90;;
54464;SDS011;40374;49.480;20.016;2023-05-27T16:40:31;8.82;;;4.18;;
54464;SDS011;40374;49.480;20.016;2023-05-27T16:42:59;14.07;;;4.35;;
54464;SDS011;40374;49.480;20.016;2023-05-27T16:45:26;28.70;;;5.68;;
54464;SDS011;40374;49.480;20.016;2023-05-27T16:47:54;11.43;;;5.28;;
54464;SDS011;40374;49.480;20.016;2023-05-27T16:50:22;11.73;;;4.53;;
54464;SDS011;40374;49.480;20.016;2023-05-27T16:52:50;13.95;;;4.45;;
54464;SDS011;40374;49.480;20.016;2023-05-27T16:55:18;12.35;;;4.45;;
54464;SDS011;40374;49.480;20.016;2023-05-27T16:57:46;9.00;;;4.30;;
54464;SDS011;40374;49.480;20.016;2023-05-27T17:00:13;9.77;;;4.18;;
54464;SDS011;40374;49.480;20.016;2023-05-27T17:02:41;8.23;;;3.83;;
54464;SDS011;40374;49.480;20.016;2023-05-27T17:05:08;9.13;;;3.97;;
54464;SDS011;40374;49.480;20.016;2023-05-27T17:07:36;6.40;;;3.88;;
54464;SDS011;40374;49.480;20.016;2023-05-27T17:10:04;13.13;;;4.25;;
54464;SDS011;40374;49.480;20.016;2023-05-27T17:12:32;9.25;;;3.67;;
54464;SDS011;40374;49.480;20.016;2023-05-27T17:14:59;10.50;;;3.92;;
54464;SDS011;40374;49.480;20.016;2023-05-27T17:17:28;9.68;;;4.72;;
54464;SDS011;40374;49.480;20.016;2023-05-27T17:19:55;16.38;;;4.00;;
54464;SDS011;40374;49.480;20.016;2023-05-27T17:22:23;10.20;;;4.10;;
54464;SDS011;40374;49.480;20.016;2023-05-27T17:24:51;15.10;;;4.38;;
54464;SDS011;40374;49.480;20.016;2023-05-27T17:27:22;11.50;;;4.55;;
54464;SDS011;40374;49.480;20.016;2023-05-27T17:29:49;11.35;;;4.15;;
54464;SDS011;40374;49.480;20.016;2023-05-27T17:32:17;19.02;;;5.15;;